Time;durP1;ratioP1;P1;durP2;ratioP2;P2;SDS_P1;SDS_P2;PMS_P1;PMS_P2;Temp;Humidity;BMP_temperature;BMP_pressure;BME280_temperature;BME280_humidity;BME280_pressure;Samples;Min_cycle;Max_cycle;Signal;HPM_P1;HPM_P2
2021/05/20 00:00:46;;;;;;;3.38;2.53;;;14.40;63.80;;;;;;5039459;28;20358;-84
2021/05/20 00:03:12;;;;;;;4.18;2.90;;;14.40;63.90;;;;;;5022412;28;20028;-83
2021/05/20 00:05:38;;;;;;;4.03;2.50;;;14.30;63.80;;;;;;5038699;28;20040;-84
2021/05/20 00:08:04;;;;;;;2.97;2.50;;;14.30;63.90;;;;;;5054595;28;20082;-84
2021/05/20 00:10:30;;;;;;;3.00;2.58;;;14.30;63.90;;;;;;5036206;28;20482;-84
2021/05/20 00:12:56;;;;;;;3.47;2.50;;;14.30;63.90;;;;;;5055611;28;20055;-84
2021/05/20 00:15:21;;;;;;;3.60;2.75;;;14.30;64.00;;;;;;5051593;28;20416;-83
2021/05/20 00:17:47;;;;;;;3.72;2.78;;;14.20;63.90;;;;;;5019100;28;20083;-84
2021/05/20 00:20:14;;;;;;;3.40;2.75;;;14.20;64.00;;;;;;5030968;28;20385;-83
2021/05/20 00:22:40;;;;;;;3.97;3.15;;;14.10;63.90;;;;;;5055260;28;20044;-84
2021/05/20 00:25:06;;;;;;;3.65;2.83;;;14.10;64.00;;;;;;5055182;28;20074;-84
2021/05/20 00:27:32;;;;;;;3.08;2.47;;;14.10;64.10;;;;;;5008530;28;20115;-84
2021/05/20 00:29:58;;;;;;;3.30;2.60;;;14.10;64.10;;;;;;5019177;28;20067;-84
2021/05/20 00:32:24;;;;;;;4.00;3.08;;;14.00;64.00;;;;;;5023881;28;20137;-84
2021/05/20 00:34:50;;;;;;;3.42;2.72;;;14.00;64.10;;;;;;5011890;28;20068;-84
2021/05/20 00:37:16;;;;;;;3.53;2.78;;;14.00;64.10;;;;;;5054753;28;20029;-84
2021/05/20 00:39:42;;;;;;;3.65;2.80;;;13.90;64.10;;;;;;5066580;28;20025;-85
2021/05/20 00:42:12;;;;;;;3.58;2.97;;;13.90;64.10;;;;;;5022164;28;20031;-84
2021/05/20 00:44:58;;;;;;;3.17;2.67;;;13.90;64.20;;;;;;5021232;28;20028;-84
2021/05/20 00:47:33;;;;;;;4.05;2.90;;;13.90;65.00;;;;;;5049843;28;20225;-84
2021/05/20 00:50:01;;;;;;;4.35;3.20;;;13.80;64.20;;;;;;5039134;28;20043;-84
2021/05/20 00:52:27;;;;;;;4.30;3.00;;;13.80;64.20;;;;;;5038005;28;20028;-84
2021/05/20 00:54:55;;;;;;;3.97;3.00;;;13.70;64.20;;;;;;5035017;28;20477;-84
2021/05/20 00:57:22;;;;;;;3.75;3.10;;;13.80;64.30;;;;;;5036399;28;20054;-84
2021/05/20 00:59:48;;;;;;;3.60;3.03;;;13.70;64.20;;;;;;5038026;28;20017;-84
2021/05/20 01:02:15;;;;;;;3.83;3.20;;;13.70;64.30;;;;;;5037051;28;20560;-84
2021/05/20 01:04:40;;;;;;;3.75;3.10;;;13.70;64.30;;;;;;5051891;28;20029;-84
2021/05/20 01:07:07;;;;;;;3.83;3.20;;;13.70;64.30;;;;;;5052004;28;20031;-84
2021/05/20 01:09:35;;;;;;;4.03;3.30;;;13.60;64.30;;;;;;5038131;28;20032;-84
2021/05/20 01:12:02;;;;;;;5.07;3.28;;;13.60;64.30;;;;;;5038096;28;20036;-83
2021/05/20 01:14:28;;;;;;;4.22;3.22;;;13.60;64.40;;;;;;5046700;28;20033;-84
2021/05/20 01:16:53;;;;;;;4.05;3.20;;;13.60;64.40;;;;;;5038398;28;20460;-84
2021/05/20 01:19:19;;;;;;;4.45;3.38;;;13.50;64.30;;;;;;5005339;28;20032;-84
2021/05/20 01:21:45;;;;;;;4.35;3.22;;;13.50;64.40;;;;;;5021740;28;20039;-85
2021/05/20 01:24:12;;;;;;;4.80;3.80;;;13.50;64.40;;;;;;5019767;28;20461;-85
2021/05/20 01:26:39;;;;;;;4.53;3.63;;;13.50;64.40;;;;;;5054630;28;20033;-85
2021/05/20 01:29:06;;;;;;;4.95;3.63;;;13.40;64.40;;;;;;5038088;28;20109;-85
2021/05/20 01:31:33;;;;;;;4.93;3.80;;;13.40;64.50;;;;;;5038954;28;20021;-85
2021/05/20 01:33:59;;;;;;;4.70;3.63;;;13.40;64.50;;;;;;5054896;28;20422;-85
2021/05/20 01:36:30;;;;;;;5.03;3.90;;;13.40;64.50;;;;;;5038133;28;20029;-85
2021/05/20 01:39:00;;;;;;;5.10;3.47;;;13.40;64.60;;;;;;5025737;28;20456;-84
2021/05/20 01:41:26;;;;;;;4.35;3.33;;;13.30;64.50;;;;;;5072157;28;20021;-85
2021/05/20 01:43:52;;;;;;;4.68;3.90;;;13.30;64.60;;;;;;5038137;28;20024;-85
2021/05/20 01:46:19;;;;;;;5.13;4.13;;;13.30;64.50;;;;;;5002101;28;20496;-85
2021/05/20 01:48:46;;;;;;;5.47;4.40;;;13.30;64.60;;;;;;5048237;28;20123;-85
2021/05/20 01:51:21;;;;;;;5.10;3.55;;;13.20;64.60;;;;;;5021429;28;20029;-86
2021/05/20 01:53:49;;;;;;;5.45;4.38;;;13.20;64.60;;;;;;5020640;28;20040;-85
2021/05/20 01:56:17;;;;;;;4.88;4.00;;;13.20;64.60;;;;;;5052642;28;20036;-86
2021/05/20 01:58:44;;;;;;;4.65;3.60;;;13.20;64.60;;;;;;5056655;28;20057;-86
2021/05/20 02:01:10;;;;;;;5.40;4.40;;;13.20;64.60;;;;;;5038970;28;20028;-86
2021/05/20 02:03:37;;;;;;;4.95;3.97;;;13.10;64.60;;;;;;5053557;28;20046;-86
2021/05/20 02:06:04;;;;;;;5.68;4.32;;;13.10;64.60;;;;;;5058386;28;20043;-86
2021/05/20 02:08:34;;;;;;;5.40;4.25;;;13.10;64.70;;;;;;5031061;28;20412;-86
2021/05/20 02:11:01;;;;;;;5.32;4.35;;;13.10;64.70;;;;;;5051139;28;20038;-85
2021/05/20 02:13:27;;;;;;;5.38;4.32;;;13.00;64.60;;;;;;5034308;28;20467;-86
2021/05/20 02:15:53;;;;;;;6.15;4.75;;;13.00;64.60;;;;;;5057337;28;20044;-86
2021/05/20 02:18:19;;;;;;;5.70;4.78;;;13.00;64.70;;;;;;5055424;28;20079;-86
2021/05/20 02:20:45;;;;;;;5.80;4.38;;;13.00;64.70;;;;;;5041029;28;20025;-86
2021/05/20 02:23:13;;;;;;;5.82;4.65;;;12.90;64.70;;;;;;5038654;28;20039;-85
2021/05/20 02:25:39;;;;;;;5.85;4.63;;;12.90;64.70;;;;;;5024567;28;20039;-86
2021/05/20 02:28:05;;;;;;;5.97;4.72;;;12.90;65.40;;;;;;5037149;28;20025;-86
2021/05/20 02:30:31;;;;;;;6.40;5.10;;;12.90;64.80;;;;;;5057701;28;21478;-86
2021/05/20 02:32:57;;;;;;;6.10;4.72;;;12.90;64.80;;;;;;5040797;28;20073;-86
2021/05/20 02:35:24;;;;;;;5.90;4.50;;;12.90;64.80;;;;;;5036912;28;20131;-86
2021/05/20 02:37:50;;;;;;;6.05;4.95;;;12.80;64.80;;;;;;5051908;28;20116;-86
2021/05/20 02:40:17;;;;;;;6.65;5.10;;;12.90;64.90;;;;;;5019441;28;20026;-86
2021/05/20 02:42:44;;;;;;;5.70;4.72;;;12.80;64.80;;;;;;5037746;28;20037;-86
2021/05/20 02:45:14;;;;;;;6.10;5.03;;;12.80;64.90;;;;;;5037539;28;20040;-86
2021/05/20 02:47:42;;;;;;;6.05;4.88;;;12.80;64.90;;;;;;5037088;28;20021;-86
2021/05/20 02:50:08;;;;;;;5.65;4.60;;;12.70;64.90;;;;;;5027090;28;20026;-86
2021/05/20 02:52:34;;;;;;;6.70;5.28;;;12.70;64.90;;;;;;5042826;28;20087;-86
2021/05/20 02:55:03;;;;;;;7.32;5.78;;;12.70;64.90;;;;;;5017887;28;20045;-86
2021/05/20 02:57:32;;;;;;;7.22;5.88;;;12.70;65.00;;;;;;5036774;28;20053;-86
2021/05/20 02:59:58;;;;;;;7.47;6.05;;;12.70;65.00;;;;;;5053711;28;20491;-85
2021/05/20 03:02:24;;;;;;;7.18;5.93;;;12.70;65.00;;;;;;5047437;28;20031;-86
2021/05/20 03:04:51;;;;;;;7.47;6.07;;;12.70;65.10;;;;;;5034949;28;20432;-87
2021/05/20 03:07:17;;;;;;;8.32;6.65;;;12.70;65.20;;;;;;5053085;28;20079;-86
2021/05/20 03:09:43;;;;;;;7.53;5.93;;;12.70;65.20;;;;;;5019963;28;20033;-86
2021/05/20 03:12:10;;;;;;;7.05;5.90;;;12.70;65.20;;;;;;5040954;28;20028;-86
2021/05/20 03:14:35;;;;;;;8.35;6.68;;;12.70;65.20;;;;;;5053300;28;20040;-86
2021/05/20 03:17:04;;;;;;;8.30;6.50;;;12.70;65.30;;;;;;5035505;28;20397;-86
2021/05/20 03:19:30;;;;;;;8.23;6.43;;;12.60;65.30;;;;;;5053538;28;20039;-85
2021/05/20 03:21:55;;;;;;;8.32;6.25;;;12.60;65.30;;;;;;5035187;28;20385;-86
2021/05/20 03:24:21;;;;;;;8.70;6.90;;;12.60;65.40;;;;;;5033681;28;20037;-85
2021/05/20 03:26:47;;;;;;;7.88;6.50;;;12.60;65.40;;;;;;5036150;28;20190;-86
2021/05/20 03:29:13;;;;;;;8.57;6.90;;;12.60;65.40;;;;;;5020310;28;20025;-85
2021/05/20 03:31:40;;;;;;;8.07;6.53;;;12.70;65.50;;;;;;5003692;28;20127;-85
2021/05/20 03:34:05;;;;;;;8.80;6.75;;;12.60;65.40;;;;;;5033553;28;20132;-86
2021/05/20 03:36:31;;;;;;;9.15;6.70;;;12.70;65.50;;;;;;5053296;28;20525;-86
2021/05/20 03:38:57;;;;;;;9.05;6.88;;;12.60;65.50;;;;;;5034241;28;20037;-85
2021/05/20 03:41:23;;;;;;;10.02;7.45;;;12.60;65.50;;;;;;5003728;28;20028;-85
2021/05/20 03:43:49;;;;;;;8.18;6.68;;;12.60;65.60;;;;;;5032628;28;20116;-85
2021/05/20 03:46:14;;;;;;;9.05;7.28;;;12.60;65.60;;;;;;5036533;28;20048;-86
2021/05/20 03:48:40;;;;;;;8.15;6.30;;;12.70;65.70;;;;;;4999833;28;20029;-85
2021/05/20 03:51:06;;;;;;;9.40;7.18;;;12.60;65.60;;;;;;5048443;28;20033;-86
2021/05/20 03:53:32;;;;;;;9.38;6.93;;;12.60;65.70;;;;;;5032625;28;20497;-86
2021/05/20 03:56:01;;;;;;;9.18;7.00;;;12.60;65.70;;;;;;5022090;28;20405;-85
2021/05/20 03:58:30;;;;;;;9.55;7.43;;;12.60;65.70;;;;;;5017741;28;20170;-85
2021/05/20 04:00:56;;;;;;;9.57;7.30;;;12.60;65.80;;;;;;5035889;28;20037;-87
2021/05/20 04:03:26;;;;;;;8.93;7.13;;;12.60;65.80;;;;;;5034933;28;20087;-84
2021/05/20 04:05:56;;;;;;;10.20;7.47;;;12.60;65.90;;;;;;5051617;28;20025;-85
2021/05/20 04:08:22;;;;;;;9.18;6.95;;;12.60;65.90;;;;;;5035245;28;20021;-82
2021/05/20 04:10:48;;;;;;;10.73;8.32;;;12.60;66.50;;;;;;5034471;28;20021;-83
2021/05/20 04:13:29;;;;;;;10.88;7.93;;;12.60;65.90;;;;;;5045861;28;20060;-84
2021/05/20 04:15:55;;;;;;;9.45;7.18;;;12.60;66.10;;;;;;5053613;28;20052;-90
2021/05/20 04:18:22;;;;;;;9.68;7.40;;;12.60;66.00;;;;;;5019342;28;20056;-87
2021/05/20 04:20:48;;;;;;;10.10;7.80;;;12.70;66.10;;;;;;5043333;28;20032;-87
2021/05/20 04:23:14;;;;;;;9.00;6.68;;;12.60;66.10;;;;;;5027738;28;20055;-88
2021/05/20 04:25:40;;;;;;;9.90;7.30;;;12.60;66.10;;;;;;5047628;28;20037;-88
2021/05/20 04:28:06;;;;;;;10.13;7.47;;;12.60;66.10;;;;;;5051737;28;20025;-86
2021/05/20 04:30:32;;;;;;;9.98;7.32;;;12.60;66.20;;;;;;5035642;28;20435;-85
2021/05/20 04:32:58;;;;;;;10.90;7.93;;;12.60;66.20;;;;;;5029698;28;20030;-86
2021/05/20 04:35:23;;;;;;;10.73;8.00;;;12.60;66.20;;;;;;5019821;28;20052;-84
2021/05/20 04:37:49;;;;;;;10.35;7.65;;;12.70;66.30;;;;;;5048514;28;20038;-90
2021/05/20 04:40:15;;;;;;;9.57;7.60;;;12.60;66.30;;;;;;5016117;28;20116;-89
2021/05/20 04:42:41;;;;;;;10.18;8.15;;;12.60;66.30;;;;;;5029783;28;20030;-87
2021/05/20 04:45:07;;;;;;;9.90;7.40;;;12.70;66.30;;;;;;5048659;28;20041;-86
2021/05/20 04:47:33;;;;;;;9.25;7.22;;;12.60;66.30;;;;;;5021162;28;20057;-85
2021/05/20 04:49:59;;;;;;;9.05;7.20;;;12.60;66.30;;;;;;5012398;28;20068;-85
2021/05/20 04:52:24;;;;;;;8.70;6.65;;;12.60;66.40;;;;;;5008767;28;20557;-88
2021/05/20 04:54:50;;;;;;;8.95;6.72;;;12.60;66.40;;;;;;5047615;28;20053;-88
2021/05/20 04:57:16;;;;;;;10.23;7.38;;;12.70;66.40;;;;;;5023167;28;20038;-88
2021/05/20 04:59:42;;;;;;;9.85;7.45;;;12.70;66.50;;;;;;5029028;28;20037;-90
2021/05/20 05:02:08;;;;;;;9.15;7.35;;;12.70;66.50;;;;;;5023145;28;20014;-83
2021/05/20 05:04:34;;;;;;;8.75;6.88;;;12.70;66.50;;;;;;5013044;28;20041;-83
2021/05/20 05:06:59;;;;;;;10.10;7.82;;;12.70;66.50;;;;;;5014123;28;20121;-81
2021/05/20 05:09:25;;;;;;;9.75;7.53;;;12.70;66.50;;;;;;4986309;28;20037;-83
2021/05/20 05:11:51;;;;;;;9.05;7.07;;;12.70;66.60;;;;;;5026206;28;20093;-84
2021/05/20 05:14:17;;;;;;;9.13;7.40;;;12.70;66.60;;;;;;5028139;28;20034;-85
2021/05/20 05:16:43;;;;;;;9.98;7.07;;;12.70;66.60;;;;;;4996090;28;20113;-84
2021/05/20 05:19:09;;;;;;;9.90;7.40;;;12.70;66.60;;;;;;5004040;28;20037;-85
2021/05/20 05:21:34;;;;;;;8.70;6.97;;;12.70;66.60;;;;;;5017533;28;20041;-85
2021/05/20 05:24:00;;;;;;;9.73;7.55;;;12.70;66.60;;;;;;5001659;28;20033;-83
2021/05/20 05:26:27;;;;;;;9.00;6.95;;;12.70;66.70;;;;;;5031755;28;20026;-84
2021/05/20 05:28:53;;;;;;;9.25;6.97;;;12.70;66.70;;;;;;5031025;28;20113;-85
2021/05/20 05:31:25;;;;;;;9.43;7.32;;;12.70;66.70;;;;;;5002854;28;20099;-85
2021/05/20 05:33:51;;;;;;;9.98;7.50;;;12.70;66.70;;;;;;5030972;28;20064;-85
2021/05/20 05:36:18;;;;;;;8.60;7.10;;;12.70;66.70;;;;;;5041346;28;20028;-84
2021/05/20 05:38:44;;;;;;;9.43;7.55;;;12.70;66.70;;;;;;5058414;28;20119;-84
2021/05/20 05:41:10;;;;;;;9.30;7.45;;;12.70;66.70;;;;;;5042437;28;20688;-84
2021/05/20 05:43:36;;;;;;;9.52;7.45;;;12.80;66.80;;;;;;5038956;28;20037;-85
2021/05/20 05:46:02;;;;;;;9.15;7.35;;;12.80;66.70;;;;;;5035844;28;20124;-85
2021/05/20 05:48:27;;;;;;;10.00;7.95;;;12.70;66.60;;;;;;5041861;28;20492;-85
2021/05/20 05:50:56;;;;;;;10.60;7.93;;;12.80;66.70;;;;;;5041274;28;20032;-84
2021/05/20 05:53:22;;;;;;;9.30;7.10;;;12.80;66.70;;;;;;5025433;28;20036;-84
2021/05/20 05:55:48;;;;;;;9.23;7.07;;;12.80;66.70;;;;;;5058526;28;20056;-84
2021/05/20 05:58:13;;;;;;;9.48;7.63;;;12.80;66.70;;;;;;5041221;28;20055;-84
2021/05/20 06:00:39;;;;;;;9.18;7.22;;;12.80;66.70;;;;;;5058236;28;20039;-84
2021/05/20 06:03:06;;;;;;;10.20;7.93;;;12.80;66.70;;;;;;5044066;28;20466;-85
2021/05/20 06:05:32;;;;;;;9.25;7.20;;;12.80;66.70;;;;;;5054642;28;20512;-84
2021/05/20 06:07:58;;;;;;;9.13;7.32;;;12.80;66.70;;;;;;5024767;28;20071;-85
2021/05/20 06:10:23;;;;;;;8.77;7.15;;;12.90;66.80;;;;;;5038276;28;20033;-84
2021/05/20 06:12:50;;;;;;;9.07;7.03;;;12.90;66.80;;;;;;5058210;28;20021;-85
2021/05/20 06:15:16;;;;;;;9.88;7.40;;;12.90;66.80;;;;;;5057536;28;20077;-84
2021/05/20 06:17:42;;;;;;;9.65;7.20;;;12.90;66.80;;;;;;5014287;28;20025;-85
2021/05/20 06:20:09;;;;;;;9.80;7.47;;;12.90;66.80;;;;;;5037922;28;20040;-83
2021/05/20 06:22:35;;;;;;;9.57;7.30;;;12.90;66.90;;;;;;5024643;28;20043;-85
2021/05/20 06:25:02;;;;;;;9.23;7.10;;;12.90;66.90;;;;;;5074246;28;20032;-84
2021/05/20 06:27:28;;;;;;;9.82;7.22;;;12.90;66.90;;;;;;5024656;28;20021;-84
2021/05/20 06:29:55;;;;;;;9.77;7.07;;;13.00;67.00;;;;;;5057728;28;20393;-85
2021/05/20 06:32:21;;;;;;;8.80;6.85;;;13.00;67.00;;;;;;5024531;28;20487;-84
2021/05/20 06:34:47;;;;;;;9.70;7.18;;;13.00;67.00;;;;;;5040330;28;20547;-84
2021/05/20 06:37:13;;;;;;;9.40;7.30;;;13.00;67.00;;;;;;5040701;28;20040;-84
2021/05/20 06:39:40;;;;;;;11.63;8.20;;;13.00;67.00;;;;;;5024210;28;20028;-83
2021/05/20 06:42:11;;;;;;;9.93;7.60;;;13.10;67.00;;;;;;5039960;28;20056;-84
2021/05/20 06:44:38;;;;;;;9.75;7.35;;;13.10;67.00;;;;;;5056135;28;20035;-83
2021/05/20 06:47:04;;;;;;;11.45;7.57;;;13.10;66.90;;;;;;5036936;28;20025;-84
2021/05/20 06:49:30;;;;;;;10.77;7.60;;;13.10;66.90;;;;;;5037178;28;20083;-83
2021/05/20 06:51:56;;;;;;;9.32;7.07;;;13.10;66.90;;;;;;4993412;28;20025;-84
2021/05/20 06:54:22;;;;;;;11.55;8.25;;;13.10;66.80;;;;;;5050724;28;20461;-84
2021/05/20 06:57:00;;;;;;;10.27;6.97;;;13.20;66.90;;;;;;5020480;28;20032;-84
2021/05/20 07:02:10;;;;;;;11.02;7.43;;;13.20;66.80;;;;;;5056363;28;20041;-84
2021/05/20 07:04:36;;;;;;;11.15;7.72;;;13.30;67.50;;;;;;5056778;28;20043;-84
2021/05/20 07:07:02;;;;;;;11.32;7.63;;;13.20;66.80;;;;;;5040211;28;20119;-85
2021/05/20 07:09:31;;;;;;;11.52;7.85;;;13.30;66.90;;;;;;5040100;28;20078;-84
2021/05/20 07:11:57;;;;;;;11.77;8.13;;;13.30;66.90;;;;;;5074424;28;20032;-84
2021/05/20 07:14:23;;;;;;;11.23;8.10;;;13.30;66.90;;;;;;5074677;28;20025;-83
2021/05/20 07:16:50;;;;;;;12.07;8.10;;;13.40;67.00;;;;;;5052908;28;20017;-84
2021/05/20 07:19:16;;;;;;;13.32;9.00;;;13.40;66.90;;;;;;5029334;28;20025;-86
2021/05/20 07:21:42;;;;;;;12.82;8.45;;;13.40;66.90;;;;;;5054949;28;20074;-84
2021/05/20 07:24:08;;;;;;;12.43;8.90;;;13.40;66.90;;;;;;5056383;28;20071;-82
2021/05/20 07:26:34;;;;;;;12.40;8.98;;;13.40;66.90;;;;;;5056323;28;20176;-83
2021/05/20 07:29:01;;;;;;;13.00;8.73;;;13.50;66.90;;;;;;5037936;28;20035;-79
2021/05/20 07:31:28;;;;;;;12.77;8.93;;;13.50;66.90;;;;;;5028006;28;20028;-82
2021/05/20 07:33:54;;;;;;;14.35;9.30;;;13.50;66.90;;;;;;5039208;28;20036;-84
2021/05/20 07:36:22;;;;;;;12.25;8.85;;;13.50;66.90;;;;;;5025612;28;20033;-81
2021/05/20 07:38:48;;;;;;;14.35;9.95;;;13.60;66.90;;;;;;5036093;28;20056;-80
2021/05/20 07:41:15;;;;;;;14.23;10.13;;;13.60;66.90;;;;;;5071305;28;20067;-80
2021/05/20 07:43:40;;;;;;;15.43;10.70;;;13.60;66.80;;;;;;5022555;28;20056;-82
2021/05/20 07:46:06;;;;;;;14.88;10.38;;;13.70;66.90;;;;;;5055548;28;20550;-82
2021/05/20 07:48:33;;;;;;;12.95;9.38;;;13.70;66.80;;;;;;5052492;28;20029;-83
2021/05/20 07:51:05;;;;;;;14.60;10.65;;;13.70;66.80;;;;;;5038789;28;20453;-79
2021/05/20 07:53:31;;;;;;;14.65;11.30;;;13.80;66.90;;;;;;5035244;28;20040;-78
2021/05/20 07:55:57;;;;;;;14.50;10.70;;;13.80;66.80;;;;;;5018788;28;20025;-78
2021/05/20 07:58:23;;;;;;;14.98;10.55;;;13.80;66.80;;;;;;5054463;28;20361;-78
2021/05/20 08:00:49;;;;;;;16.10;11.40;;;13.80;66.80;;;;;;5051529;28;20106;-79
2021/05/20 08:11:09;;;;;;;15.10;10.80;;;13.90;66.60;;;;;;5062904;28;20032;-81
2021/05/20 08:13:35;;;;;;;14.68;10.65;;;14.00;66.70;;;;;;5054686;28;20087;-82
2021/05/20 08:16:02;;;;;;;14.80;10.52;;;14.00;66.60;;;;;;5038201;28;20464;-81
2021/05/20 08:18:29;;;;;;;15.13;11.27;;;14.00;66.60;;;;;;5038135;28;20024;-82
2021/05/20 08:20:56;;;;;;;15.50;11.38;;;14.10;66.60;;;;;;5072603;28;20469;-82
2021/05/20 08:23:22;;;;;;;14.85;11.60;;;14.10;66.60;;;;;;5036534;28;20111;-82
2021/05/20 08:25:49;;;;;;;14.77;10.63;;;14.10;66.60;;;;;;5054910;28;20067;-81
2021/05/20 08:28:16;;;;;;;14.90;10.73;;;14.20;66.50;;;;;;5034625;28;20449;-82
2021/05/20 08:30:42;;;;;;;14.90;11.18;;;14.20;66.50;;;;;;5005540;28;20093;-83
2021/05/20 08:33:08;;;;;;;14.73;10.90;;;14.30;66.50;;;;;;5051009;28;20108;-81
2021/05/20 08:35:34;;;;;;;14.18;10.95;;;14.30;66.40;;;;;;5037728;28;20118;-82
2021/05/20 08:38:00;;;;;;;14.40;11.05;;;14.40;66.40;;;;;;5054415;28;20400;-81
2021/05/20 08:40:26;;;;;;;15.23;10.85;;;14.40;66.40;;;;;;5037759;28;20083;-82
2021/05/20 08:42:52;;;;;;;15.13;10.75;;;14.40;66.30;;;;;;5054832;28;20036;-81
2021/05/20 08:45:23;;;;;;;14.88;10.63;;;14.50;66.30;;;;;;5037683;28;20033;-81
2021/05/20 08:47:50;;;;;;;15.00;10.98;;;14.50;66.30;;;;;;5072135;28;20035;-81
2021/05/20 08:50:18;;;;;;;14.15;10.30;;;14.50;66.20;;;;;;5054568;28;20021;-81
2021/05/20 08:52:44;;;;;;;14.85;11.38;;;14.50;66.10;;;;;;5037955;28;20037;-81
2021/05/20 08:55:13;;;;;;;14.38;10.90;;;14.60;66.20;;;;;;5072021;28;20025;-82
2021/05/20 08:57:39;;;;;;;13.63;10.30;;;14.70;66.10;;;;;;5037748;28;20032;-81
2021/05/20 09:00:10;;;;;;;13.20;10.40;;;14.70;66.10;;;;;;5037306;28;20457;-82
2021/05/20 09:02:36;;;;;;;13.88;10.35;;;14.70;66.00;;;;;;5037062;28;20074;-81
2021/05/20 09:05:22;;;;;;;14.40;10.18;;;14.80;66.00;;;;;;5054031;28;20029;-81
2021/05/20 09:07:56;;;;;;;12.48;9.73;;;14.80;66.10;;;;;;5040449;28;20093;-80
2021/05/20 09:10:27;;;;;;;14.13;10.27;;;14.90;65.90;;;;;;5044443;28;20052;-81
2021/05/20 09:13:05;;;;;;;13.55;9.85;;;14.90;65.80;;;;;;5076202;28;20033;-80
2021/05/20 09:15:42;;;;;;;14.88;10.57;;;14.90;65.90;;;;;;5074747;28;20033;-80
2021/05/20 09:18:18;;;;;;;12.38;9.10;;;15.00;65.80;;;;;;5075857;28;20104;-82
2021/05/20 09:20:49;;;;;;;12.95;10.40;;;15.10;65.80;;;;;;5041470;28;20032;-81
2021/05/20 09:23:18;;;;;;;12.52;9.85;;;15.10;65.80;;;;;;5058002;28;20039;-81
2021/05/20 09:25:46;;;;;;;13.27;9.80;;;15.10;65.70;;;;;;5057966;28;20410;-81
2021/05/20 09:28:14;;;;;;;13.07;9.55;;;15.20;65.70;;;;;;5057951;28;20385;-81
2021/05/20 09:30:48;;;;;;;12.80;9.38;;;15.30;65.70;;;;;;5051053;28;20041;-81
2021/05/20 09:33:19;;;;;;;11.93;9.52;;;15.30;65.70;;;;;;5075641;28;20032;-81
2021/05/20 09:35:48;;;;;;;12.32;9.15;;;15.40;65.50;;;;;;5055522;28;20057;-81
2021/05/20 09:38:17;;;;;;;13.52;10.32;;;15.40;65.50;;;;;;5058053;28;20036;-80
2021/05/20 09:40:44;;;;;;;11.93;9.05;;;15.50;65.50;;;;;;5075212;28;20021;-79
2021/05/20 09:43:42;;;;;;;11.75;8.50;;;15.50;65.40;;;;;;5061997;28;20025;-79
2021/05/20 09:46:13;;;;;;;10.18;8.30;;;15.60;65.50;;;;;;5041877;28;20754;-81
2021/05/20 09:48:42;;;;;;;10.35;8.15;;;15.70;65.30;;;;;;5075121;28;20108;-80
2021/05/20 09:51:28;;;;;;;11.00;8.43;;;15.70;65.30;;;;;;5057139;28;20020;-81
2021/05/20 09:53:55;;;;;;;10.93;8.48;;;15.70;65.40;;;;;;5057553;28;20071;-80
2021/05/20 09:56:40;;;;;;;10.82;8.57;;;15.80;65.20;;;;;;5074957;28;20059;-83
2021/05/20 09:59:07;;;;;;;9.80;7.63;;;15.90;65.30;;;;;;5063968;28;20068;-79
2021/05/20 10:01:34;;;;;;;10.48;8.38;;;15.90;65.10;;;;;;5034872;28;20485;-81
2021/05/20 10:04:00;;;;;;;9.75;8.02;;;15.90;65.00;;;;;;5057598;28;20111;-81
2021/05/20 10:06:35;;;;;;;10.55;8.02;;;16.00;65.00;;;;;;5060770;28;20504;-81
2021/05/20 10:09:03;;;;;;;10.10;8.32;;;16.00;65.00;;;;;;5057266;28;20024;-78
2021/05/20 10:11:32;;;;;;;11.25;9.02;;;16.10;65.00;;;;;;5056956;28;20024;-80
2021/05/20 10:13:59;;;;;;;11.07;8.50;;;16.10;64.90;;;;;;5057119;28;20392;-80
2021/05/20 10:16:26;;;;;;;10.60;8.30;;;16.20;64.80;;;;;;5074753;28;20107;-80
2021/05/20 10:18:56;;;;;;;9.88;7.75;;;16.20;64.80;;;;;;5060094;28;20029;-78
2021/05/20 10:21:29;;;;;;;9.52;7.57;;;16.30;64.80;;;;;;5040774;28;20033;-80
2021/05/20 10:23:56;;;;;;;9.27;7.40;;;16.30;64.70;;;;;;5056241;28;20488;-79
2021/05/20 10:26:23;;;;;;;9.90;7.88;;;16.40;64.70;;;;;;5036964;28;20029;-79
2021/05/20 10:28:49;;;;;;;8.32;6.82;;;16.40;64.60;;;;;;5068149;28;20507;-80
2021/05/20 10:31:15;;;;;;;9.52;7.45;;;16.50;64.50;;;;;;5060616;28;20017;-77
2021/05/20 10:33:44;;;;;;;9.40;7.63;;;16.50;64.40;;;;;;5056649;28;20515;-79
2021/05/20 10:36:26;;;;;;;8.55;7.00;;;16.60;64.40;;;;;;5060879;28;20028;-79
2021/05/20 10:38:53;;;;;;;8.70;7.22;;;16.70;64.50;;;;;;5074775;28;20029;-83
2021/05/20 10:41:27;;;;;;;9.55;7.78;;;16.70;64.30;;;;;;5070026;28;20021;-83
2021/05/20 10:44:06;;;;;;;8.73;6.93;;;16.80;64.30;;;;;;5033530;28;20354;-85
2021/05/20 10:46:52;;;;;;;8.25;7.05;;;16.90;64.20;;;;;;5057176;28;20040;-82
2021/05/20 10:49:20;;;;;;;8.18;6.40;;;16.90;64.00;;;;;;5074594;28;20346;-83
2021/05/20 10:51:46;;;;;;;8.70;6.82;;;17.10;64.00;;;;;;5057492;28;20016;-83
2021/05/20 10:54:14;;;;;;;9.00;7.10;;;17.10;63.90;;;;;;5040453;28;20485;-84
2021/05/20 10:56:40;;;;;;;8.52;7.07;;;17.20;63.80;;;;;;5026161;28;20448;-82
2021/05/20 10:59:32;;;;;;;8.40;6.70;;;17.20;63.60;;;;;;5056804;28;20099;-83
2021/05/20 11:01:57;;;;;;;8.32;6.40;;;17.30;63.70;;;;;;5028046;28;20032;-82
2021/05/20 11:04:38;;;;;;;7.88;6.05;;;17.40;63.50;;;;;;5057552;28;20032;-84
2021/05/20 11:07:04;;;;;;;8.35;6.32;;;17.40;63.70;;;;;;5037066;28;20025;-83
2021/05/20 11:09:48;;;;;;;8.98;6.85;;;17.60;63.40;;;;;;5016868;28;20425;-85
2021/05/20 11:12:17;;;;;;;8.93;6.88;;;17.60;63.40;;;;;;5044316;28;20105;-84
2021/05/20 11:14:44;;;;;;;8.50;6.50;;;17.70;63.20;;;;;;5042456;28;20070;-85
2021/05/20 11:17:29;;;;;;;7.93;6.20;;;17.80;63.20;;;;;;5040112;28;20346;-83
2021/05/20 11:20:33;;;;;;;7.68;6.32;;;17.90;63.20;;;;;;5056262;28;20039;-84
2021/05/20 11:23:25;;;;;;;7.60;6.22;;;18.00;63.10;;;;;;5056316;28;20643;-83
2021/05/20 11:26:08;;;;;;;8.05;6.78;;;18.00;63.00;;;;;;5059051;28;20050;-85
2021/05/20 11:28:47;;;;;;;8.00;6.63;;;18.10;63.00;;;;;;5062238;28;20155;-85
2021/05/20 11:31:16;;;;;;;7.55;6.18;;;18.20;62.90;;;;;;5042642;28;20028;-85
2021/05/20 11:36:14;;;;;;;7.90;6.50;;;18.30;62.80;;;;;;5051532;28;20036;-85
2021/05/20 11:38:55;;;;;;;8.75;7.03;;;18.40;62.90;;;;;;5036740;28;20086;-85
2021/05/20 11:41:21;;;;;;;8.32;6.68;;;18.40;62.90;;;;;;5039429;28;20028;-86
2021/05/20 11:43:59;;;;;;;8.05;6.60;;;18.50;62.80;;;;;;5039894;28;20058;-86
2021/05/20 11:46:25;;;;;;;8.50;6.95;;;18.50;62.80;;;;;;5043233;28;20079;-85
2021/05/20 11:49:05;;;;;;;7.93;6.57;;;18.60;62.90;;;;;;5039860;28;20462;-85
2021/05/20 11:51:54;;;;;;;8.85;7.40;;;18.70;63.00;;;;;;5074750;28;20033;-85
2021/05/20 11:54:31;;;;;;;8.13;6.90;;;18.80;63.00;;;;;;5056503;28;20033;-85
2021/05/20 11:56:59;;;;;;;8.35;7.05;;;18.80;62.90;;;;;;5048269;28;20541;-85
2021/05/20 11:59:35;;;;;;;9.13;7.43;;;18.80;62.90;;;;;;5050469;28;20082;-86
2021/05/20 12:02:01;;;;;;;8.73;7.22;;;18.90;63.00;;;;;;5048500;28;20119;-86
2021/05/20 12:04:27;;;;;;;8.27;7.18;;;19.00;63.10;;;;;;5000412;28;20055;-85
2021/05/20 12:06:54;;;;;;;8.98;7.50;;;19.00;63.00;;;;;;5023107;28;20465;-85
2021/05/20 12:09:20;;;;;;;8.88;7.18;;;19.10;63.10;;;;;;5039405;28;20044;-85
2021/05/20 12:11:47;;;;;;;9.45;7.68;;;19.10;63.00;;;;;;5025318;28;20027;-85
2021/05/20 12:14:30;;;;;;;8.27;6.97;;;19.10;63.00;;;;;;5039761;28;20555;-86
2021/05/20 12:17:08;;;;;;;9.65;7.95;;;19.20;63.10;;;;;;5052147;28;20028;-85
2021/05/20 12:19:40;;;;;;;9.10;7.70;;;19.20;63.00;;;;;;5055815;28;20070;-85
2021/05/20 12:22:10;;;;;;;8.45;7.43;;;19.30;62.90;;;;;;5055625;28;20016;-86
2021/05/20 12:24:39;;;;;;;9.90;8.13;;;19.30;62.90;;;;;;5072425;28;20043;-85
2021/05/20 12:27:13;;;;;;;9.57;8.10;;;19.40;62.90;;;;;;5022635;28;20038;-84
2021/05/20 12:29:41;;;;;;;9.55;8.07;;;19.40;62.90;;;;;;5043067;28;20111;-86
2021/05/20 12:32:42;;;;;;;8.32;7.43;;;19.40;62.80;;;;;;5059206;28;20020;-84
2021/05/20 12:35:22;;;;;;;9.32;7.82;;;19.50;62.80;;;;;;5034518;28;20045;-85
2021/05/20 12:38:10;;;;;;;8.80;7.60;;;19.50;62.70;;;;;;5033282;28;20044;-86
2021/05/20 12:40:48;;;;;;;9.55;7.72;;;19.60;62.80;;;;;;5066419;28;20369;-85
2021/05/20 12:43:32;;;;;;;9.18;7.90;;;19.60;62.80;;;;;;5045809;28;20111;-85
2021/05/20 12:46:18;;;;;;;9.43;7.78;;;19.60;62.70;;;;;;5053868;28;20045;-86
2021/05/20 12:49:04;;;;;;;9.32;8.27;;;19.60;62.70;;;;;;5029738;28;20033;-86
2021/05/20 12:51:31;;;;;;;8.98;7.78;;;19.70;62.80;;;;;;5073256;28;20040;-86
2021/05/20 12:53:59;;;;;;;9.57;8.40;;;19.70;62.80;;;;;;5073639;28;20052;-86
2021/05/20 12:56:27;;;;;;;8.95;7.85;;;19.70;62.80;;;;;;5019784;28;20033;-86
2021/05/20 12:58:57;;;;;;;9.57;8.40;;;19.70;62.80;;;;;;5028775;28;20111;-86
2021/05/20 13:01:25;;;;;;;9.65;8.15;;;19.80;62.90;;;;;;5039545;28;20025;-86
2021/05/20 13:03:57;;;;;;;9.55;8.18;;;19.80;62.80;;;;;;5027782;28;20028;-87